Time;durP1;ratioP1;P1;durP2;ratioP2;P2;SDS_P1;SDS_P2;PMS_P1;PMS_P2;Temp;Humidity;BMP_temperature;BMP_pressure;BME280_temperature;BME280_humidity;BME280_pressure;Samples;Min_cycle;Max_cycle;Signal;HPM_P1;HPM_P2
2021/05/23 00:00:48;;;;;;;34.53;8.10;;;6.30;99.90;;;;;;4819374;28;20184;-82
2021/05/23 00:03:13;;;;;;;11.47;4.00;;;6.30;99.90;;;;;;4820115;28;20723;-81
2021/05/23 00:05:38;;;;;;;16.60;3.80;;;;;;;;;;4821706;28;20192;-84
2021/05/23 00:08:04;;;;;;;13.73;4.10;;;6.40;99.90;;;;;;4805544;28;20204;-83
2021/05/23 00:10:28;;;;;;;13.07;3.87;;;6.40;99.90;;;;;;4815444;28;20219;-82
2021/05/23 00:12:50;;;;;;;7.93;2.73;;;;;;;;;;4825179;28;20246;-81
2021/05/23 00:15:13;;;;;;;21.30;4.97;;;;;;;;;;4809422;28;20200;-81
2021/05/23 00:17:36;;;;;;;13.50;4.20;;;6.40;99.90;;;;;;4813644;28;20579;-79
2021/05/23 00:19:58;;;;;;;7.00;3.23;;;6.10;99.90;;;;;;4824786;28;20186;-83
2021/05/23 00:22:20;;;;;;;11.70;3.97;;;6.50;99.90;;;;;;4819954;28;20408;-86
2021/05/23 00:24:43;;;;;;;7.40;3.23;;;;;;;;;;4814705;28;20197;-84
2021/05/23 00:27:05;;;;;;;5.97;2.93;;;6.20;99.90;;;;;;4804948;28;20215;-86
2021/05/23 00:29:27;;;;;;;19.57;4.87;;;6.90;99.90;;;;;;4833623;28;20265;-83
2021/05/23 00:31:49;;;;;;;17.07;4.27;;;;;;;;;;4835586;28;20194;-80
2021/05/23 00:34:13;;;;;;;11.10;3.77;;;6.20;99.90;;;;;;4794711;28;20609;-81
2021/05/23 00:36:35;;;;;;;19.87;4.90;;;;;;;;;;4823184;28;20196;-85
2021/05/23 00:38:57;;;;;;;12.77;3.73;;;6.20;99.90;;;;;;4807492;28;20717;-86
2021/05/23 00:41:19;;;;;;;6.70;3.10;;;5.90;99.90;;;;;;4820930;28;20206;-83
2021/05/23 00:43:41;;;;;;;12.00;3.97;;;6.00;99.90;;;;;;4830576;28;20310;-82
2021/05/23 00:46:04;;;;;;;30.43;5.00;;;;;;;;;;4801898;28;20192;-83
2021/05/23 00:48:26;;;;;;;7.47;2.90;;;;;;;;;;4822257;28;20293;-81
2021/05/23 00:50:49;;;;;;;6.67;2.87;;;5.70;99.90;;;;;;4825984;28;20218;-82
2021/05/23 00:53:11;;;;;;;149.80;15.20;;;5.60;99.90;;;;;;4830848;28;20283;-83
2021/05/23 00:55:34;;;;;;;167.67;16.70;;;;;;;;;;4801860;28;20177;-81
2021/05/23 00:57:56;;;;;;;84.47;9.97;;;5.40;99.90;;;;;;4804557;28;20185;-81
2021/05/23 01:01:03;;;;;;;74.07;8.23;;;5.30;99.90;;;;;;4803609;28;20674;-81
2021/05/23 01:03:53;;;;;;;95.20;11.73;;;5.10;99.90;;;;;;4815877;28;20223;-84
2021/05/23 01:06:16;;;;;;;82.80;10.23;;;4.90;99.90;;;;;;4828972;28;20183;-85
2021/05/23 01:08:39;;;;;;;84.10;10.30;;;4.90;99.90;;;;;;4794677;28;20301;-81
2021/05/23 01:11:04;;;;;;;50.27;5.90;;;4.80;99.90;;;;;;4814678;28;20610;-81
2021/05/23 01:14:09;;;;;;;45.70;5.57;;;4.80;99.90;;;;;;4818471;28;20661;-82
2021/05/23 01:16:36;;;;;;;15.33;4.33;;;4.70;99.90;;;;;;4796955;28;20204;-83
2021/05/23 01:19:02;;;;;;;7.53;3.57;;;4.70;99.90;;;;;;4820602;28;20268;-84
2021/05/23 01:21:28;;;;;;;8.13;3.47;;;4.60;99.90;;;;;;4813337;28;20200;-84
2021/05/23 01:23:58;;;;;;;7.90;3.77;;;4.50;99.90;;;;;;4812768;28;20646;-81
2021/05/23 01:26:25;;;;;;;8.70;4.20;;;4.50;99.90;;;;;;4819121;28;20782;-85
2021/05/23 01:28:50;;;;;;;17.07;4.97;;;4.50;99.90;;;;;;4826142;28;20191;-84
2021/05/23 01:31:15;;;;;;;20.27;4.40;;;4.30;99.90;;;;;;4806231;28;20227;-84
2021/05/23 01:33:38;;;;;;;12.33;4.57;;;;;;;;;;4829905;28;20719;-87
2021/05/23 01:36:00;;;;;;;7.13;4.07;;;4.10;99.90;;;;;;4823524;28;20720;-85
2021/05/23 01:38:23;;;;;;;13.03;5.00;;;4.10;99.90;;;;;;4831175;28;20211;-84
2021/05/23 01:40:49;;;;;;;10.40;4.70;;;4.70;99.90;;;;;;4824818;28;20191;-85
2021/05/23 01:43:12;;;;;;;10.37;4.93;;;4.10;99.90;;;;;;4819583;28;20317;-85
2021/05/23 01:45:35;;;;;;;44.70;7.27;;;4.10;99.90;;;;;;4809896;28;20224;-84
2021/05/23 01:47:57;;;;;;;27.17;4.73;;;4.10;99.90;;;;;;4820651;28;20187;-85
2021/05/23 01:50:20;;;;;;;21.23;4.27;;;;;;;;;;4825929;28;20305;-84
2021/05/23 01:52:50;;;;;;;14.10;6.07;;;4.00;99.90;;;;;;4795127;28;20740;-85
2021/05/23 01:55:13;;;;;;;16.40;6.57;;;4.00;99.90;;;;;;4813213;28;20184;-85
2021/05/23 01:57:35;;;;;;;10.27;5.47;;;3.90;99.90;;;;;;4820424;28;20215;-84
2021/05/23 01:59:58;;;;;;;13.70;6.40;;;3.60;99.90;;;;;;4806778;28;20299;-85
2021/05/23 02:02:21;;;;;;;10.50;5.83;;;;;;;;;;4814308;28;20274;-84
2021/05/23 02:04:43;;;;;;;63.63;10.60;;;;;;;;;;4813769;28;20204;-85
2021/05/23 02:07:05;;;;;;;9.87;4.63;;;4.00;99.90;;;;;;4801557;28;20199;-84
2021/05/23 02:09:27;;;;;;;8.90;5.07;;;;;;;;;;4802026;28;20188;-85
2021/05/23 02:11:55;;;;;;;5.93;4.43;;;;;;;;;;4826737;28;20277;-85
2021/05/23 02:14:17;;;;;;;7.53;5.00;;;3.70;99.90;;;;;;4828006;28;20596;-85
2021/05/23 02:16:40;;;;;;;10.50;6.50;;;3.70;99.90;;;;;;4819207;28;20195;-83
2021/05/23 02:19:02;;;;;;;9.17;5.93;;;3.80;99.90;;;;;;4812219;28;20187;-83
2021/05/23 02:21:25;;;;;;;12.07;6.53;;;;;;;;;;4787826;28;20642;-85
2021/05/23 02:23:51;;;;;;;71.97;10.20;;;4.10;99.90;;;;;;4830454;28;20178;-83
2021/05/23 02:26:13;;;;;;;26.23;6.60;;;;;;;;;;4817509;28;20219;-82
2021/05/23 02:28:35;;;;;;;65.80;9.23;;;;;;;;;;4812964;28;20203;-79
2021/05/23 02:30:58;;;;;;;15.20;4.60;;;;;;;;;;4816345;28;20218;-83
2021/05/23 02:33:23;;;;;;;7.63;4.70;;;3.80;99.90;;;;;;4826029;28;20237;-80
2021/05/23 02:35:47;;;;;;;9.80;5.43;;;3.90;99.90;;;;;;4825697;28;20183;-83
2021/05/23 02:38:10;;;;;;;7.57;4.70;;;;;;;;;;4798930;28;20329;-84
2021/05/23 02:40:33;;;;;;;9.03;5.57;;;3.80;99.90;;;;;;4802162;28;20192;-86
2021/05/23 02:42:56;;;;;;;10.90;6.00;;;4.20;99.90;;;;;;4813528;28;20494;-85
2021/05/23 02:45:18;;;;;;;13.93;7.10;;;3.90;99.90;;;;;;4811525;28;20215;-82
2021/05/23 02:47:42;;;;;;;14.07;6.83;;;4.00;99.90;;;;;;4805398;28;20299;-83
2021/05/23 02:50:08;;;;;;;8.50;4.93;;;4.30;99.90;;;;;;4822773;28;20626;-85
2021/05/23 02:52:30;;;;;;;8.20;4.83;;;4.30;99.90;;;;;;4821932;28;20186;-81
2021/05/23 02:54:52;;;;;;;6.77;4.80;;;4.90;99.90;;;;;;4822800;28;20642;-83
2021/05/23 02:57:14;;;;;;;7.40;4.87;;;4.50;99.90;;;;;;4832648;28;20194;-83
2021/05/23 02:59:36;;;;;;;10.33;5.43;;;4.40;99.90;;;;;;4816989;28;20199;-83
2021/05/23 03:01:59;;;;;;;6.80;4.57;;;4.50;99.90;;;;;;4811983;28;20298;-85
2021/05/23 03:04:21;;;;;;;6.60;4.80;;;;;;;;;;4803026;28;20199;-85
2021/05/23 03:06:44;;;;;;;9.50;5.23;;;5.10;99.90;;;;;;4830166;28;20253;-85
2021/05/23 03:09:06;;;;;;;8.47;5.13;;;;;;;;;;4793867;28;20191;-84
2021/05/23 03:11:29;;;;;;;6.90;4.60;;;;;;;;;;4818305;28;20289;-84
2021/05/23 03:13:51;;;;;;;6.00;4.13;;;4.30;99.90;;;;;;4800330;28;20732;-85
2021/05/23 03:16:13;;;;;;;6.53;4.53;;;4.80;99.90;;;;;;4818942;28;20258;-84
2021/05/23 03:18:35;;;;;;;7.83;4.43;;;4.50;99.90;;;;;;4828604;28;20220;-86
2021/05/23 03:20:57;;;;;;;6.60;4.40;;;5.10;99.90;;;;;;4830011;28;20258;-82
2021/05/23 03:23:20;;;;;;;10.03;5.27;;;4.90;99.90;;;;;;4839028;28;20187;-85
2021/05/23 03:25:43;;;;;;;7.10;4.30;;;5.00;99.90;;;;;;4810978;28;20188;-85
2021/05/23 03:28:06;;;;;;;6.90;4.27;;;4.90;99.90;;;;;;4805769;28;20760;-86
2021/05/23 03:30:32;;;;;;;8.17;4.83;;;4.90;99.90;;;;;;4811828;28;20188;-84
2021/05/23 03:32:54;;;;;;;5.57;3.77;;;4.90;99.90;;;;;;4819413;28;20183;-84
2021/05/23 03:35:17;;;;;;;13.37;6.33;;;;;;;;;;4805297;28;20592;-84
2021/05/23 03:37:39;;;;;;;11.03;5.90;;;5.00;99.90;;;;;;4807498;28;20199;-83
2021/05/23 03:40:04;;;;;;;6.50;4.30;;;5.10;99.90;;;;;;4827763;28;20227;-82
2021/05/23 03:42:27;;;;;;;9.67;5.00;;;5.30;99.90;;;;;;4817225;28;20629;-84
2021/05/23 03:44:57;;;;;;;5.60;4.00;;;5.20;99.90;;;;;;4821736;28;20196;-85
2021/05/23 03:47:19;;;;;;;7.10;4.43;;;5.40;99.90;;;;;;4831641;28;20190;-85
2021/05/23 03:49:41;;;;;;;7.00;4.47;;;5.40;99.90;;;;;;4819766;28;20254;-85
2021/05/23 03:52:03;;;;;;;7.10;4.67;;;5.40;99.90;;;;;;4820134;28;20266;-84
2021/05/23 03:54:25;;;;;;;8.73;4.77;;;;;;;;;;4811519;28;20215;-82
2021/05/23 03:56:48;;;;;;;9.90;5.70;;;5.70;99.90;;;;;;4829742;28;20645;-83
2021/05/23 03:59:11;;;;;;;8.17;5.20;;;;;;;;;;4812378;28;20702;-84
2021/05/23 04:01:33;;;;;;;8.97;5.30;;;5.40;99.90;;;;;;4822493;28;20258;-84
2021/05/23 04:03:58;;;;;;;7.40;5.00;;;;;;;;;;4804321;28;20246;-84
2021/05/23 04:06:20;;;;;;;9.07;6.27;;;6.60;99.90;;;;;;4803830;28;20200;-84
2021/05/23 04:08:42;;;;;;;8.50;4.97;;;5.90;99.90;;;;;;4821916;28;20562;-84
2021/05/23 04:11:08;;;;;;;5.63;3.83;;;6.20;99.90;;;;;;4809893;28;20220;-85
2021/05/23 04:13:32;;;;;;;7.07;4.20;;;6.10;99.90;;;;;;4827376;28;20290;-84
2021/05/23 04:15:54;;;;;;;5.50;4.00;;;6.40;99.90;;;;;;4827756;28;20188;-84
2021/05/23 04:18:17;;;;;;;6.93;3.70;;;;;;;;;;4828745;28;20202;-85
2021/05/23 04:20:39;;;;;;;10.20;4.83;;;7.80;99.90;;;;;;4805034;28;20201;-85
2021/05/23 04:23:01;;;;;;;5.40;3.27;;;6.70;99.90;;;;;;4802821;28;20192;-85
2021/05/23 04:25:25;;;;;;;6.10;3.30;;;6.90;99.90;;;;;;4830000;28;20608;-85
2021/05/23 04:27:49;;;;;;;5.70;3.50;;;6.60;99.90;;;;;;4801096;28;20192;-84
2021/05/23 04:30:14;;;;;;;5.27;2.90;;;7.00;99.90;;;;;;4826866;28;20253;-81
2021/05/23 04:32:36;;;;;;;6.83;3.53;;;7.20;99.90;;;;;;4829518;28;20257;-83
2021/05/23 04:34:58;;;;;;;5.73;2.83;;;;;;;;;;4823638;28;20645;-82
2021/05/23 04:37:20;;;;;;;5.50;2.77;;;7.70;99.90;;;;;;4829419;28;20246;-82
2021/05/23 04:39:43;;;;;;;9.73;3.87;;;7.50;99.90;;;;;;4818817;28;20218;-84
2021/05/23 04:42:05;;;;;;;8.23;3.67;;;7.80;99.90;;;;;;4796813;28;20245;-81
2021/05/23 04:44:27;;;;;;;5.43;2.73;;;7.90;99.90;;;;;;4813907;28;20204;-85
2021/05/23 04:46:51;;;;;;;5.67;2.73;;;8.20;99.90;;;;;;4819952;28;20238;-80
2021/05/23 04:49:13;;;;;;;4.83;2.47;;;;;;;;;;4812893;28;20214;-82
2021/05/23 04:51:35;;;;;;;8.57;3.53;;;;;;;;;;4812290;28;20323;-79
2021/05/23 04:53:57;;;;;;;5.73;2.90;;;9.00;99.90;;;;;;4792185;28;20745;-78
2021/05/23 04:56:20;;;;;;;6.07;3.00;;;;;;;;;;4809957;28;20800;-82
2021/05/23 04:58:42;;;;;;;7.67;3.10;;;9.00;99.90;;;;;;4790724;28;20224;-80
2021/05/23 05:01:04;;;;;;;4.57;2.10;;;;;;;;;;4824129;28;20211;-82
2021/05/23 05:03:27;;;;;;;4.97;2.20;;;8.50;99.90;;;;;;4816171;28;20247;-80
2021/05/23 05:05:49;;;;;;;6.47;2.87;;;;;;;;;;4810043;28;20227;-83
2021/05/23 05:08:11;;;;;;;4.50;2.17;;;;;;;;;;4834419;28;20199;-81
2021/05/23 05:10:34;;;;;;;6.17;2.47;;;;;;;;;;4805970;28;20298;-79
2021/05/23 05:12:55;;;;;;;4.33;2.20;;;9.40;99.90;;;;;;4819732;28;20227;-79
2021/05/23 05:15:18;;;;;;;13.37;4.20;;;;;;;;;;4817903;28;20211;-80
2021/05/23 05:17:40;;;;;;;7.07;2.80;;;9.40;99.90;;;;;;4793272;28;20193;-80
2021/05/23 05:20:06;;;;;;;6.93;2.77;;;9.90;99.90;;;;;;4825455;28;20238;-81
2021/05/23 05:22:28;;;;;;;6.20;2.33;;;10.40;99.90;;;;;;4805208;28;20218;-79
2021/05/23 05:24:51;;;;;;;3.07;1.43;;;;;;;;;;4812708;28;20187;-79
2021/05/23 05:27:13;;;;;;;4.97;1.83;;;;;;;;;;4803711;28;20715;-82
2021/05/23 05:29:35;;;;;;;6.70;2.30;;;;;;;;;;4826565;28;20187;-80
2021/05/23 05:31:58;;;;;;;5.00;1.80;;;10.20;99.90;;;;;;4802821;28;20631;-79
2021/05/23 05:34:20;;;;;;;3.63;1.47;;;;;;;;;;4819176;28;20203;-82
2021/05/23 05:36:44;;;;;;;8.00;2.73;;;10.50;99.90;;;;;;4824149;28;20557;-84
2021/05/23 05:39:07;;;;;;;4.60;1.70;;;;;;;;;;4828226;28;20804;-85
2021/05/23 05:41:29;;;;;;;4.37;1.57;;;10.50;99.90;;;;;;4829998;28;20245;-85
2021/05/23 05:43:51;;;;;;;1.47;0.83;;;;;;;;;;4819953;28;20249;-85
2021/05/23 05:46:14;;;;;;;2.60;1.10;;;;;;;;;;4823693;28;20187;-94
2021/05/23 05:48:36;;;;;;;3.90;1.33;;;;;;;;;;4787512;28;20649;-91
2021/05/23 05:51:00;;;;;;;2.90;1.20;;;;;;;;;;4821233;28;20544;-84
2021/05/23 05:53:24;;;;;;;4.73;1.57;;;10.30;99.90;;;;;;4812363;28;20283;-83
2021/05/23 05:55:46;;;;;;;5.90;1.80;;;11.00;99.90;;;;;;4834805;28;20711;-84
2021/05/23 05:58:08;;;;;;;4.90;1.73;;;;;;;;;;4816083;28;20230;-83
2021/05/23 06:00:33;;;;;;;14.47;3.83;;;10.90;99.90;;;;;;4818224;28;20214;-87
2021/05/23 06:02:55;;;;;;;2.53;1.13;;;;;;;;;;4836538;28;20540;-86
2021/05/23 06:05:18;;;;;;;10.37;2.97;;;;;;;;;;4819888;28;20242;-84
2021/05/23 06:07:40;;;;;;;4.47;1.43;;;11.40;99.90;;;;;;4816883;28;20180;-82
2021/05/23 06:10:04;;;;;;;3.63;1.30;;;11.30;99.90;;;;;;4818565;28;20302;-87
2021/05/23 06:12:26;;;;;;;6.90;1.93;;;;;;;;;;4828947;28;20231;-80
2021/05/23 06:14:52;;;;;;;6.43;2.13;;;10.90;99.90;;;;;;4823563;28;20194;-84
2021/05/23 06:17:15;;;;;;;4.13;1.30;;;11.30;99.90;;;;;;4791017;28;20192;-84
2021/05/23 06:19:37;;;;;;;8.83;2.60;;;;;;;;;;4818465;28;20187;-83
2021/05/23 06:21:59;;;;;;;3.57;1.40;;;11.10;99.90;;;;;;4783463;28;20260;-79
2021/05/23 06:24:21;;;;;;;3.53;1.33;;;10.80;99.90;;;;;;4832423;28;20233;-79
2021/05/23 06:26:44;;;;;;;6.70;2.00;;;11.20;99.90;;;;;;4818742;28;20203;-80
2021/05/23 06:29:06;;;;;;;2.77;1.10;;;11.20;99.90;;;;;;4819315;28;20199;-79
2021/05/23 06:31:29;;;;;;;3.47;1.27;;;;;;;;;;4818734;28;20227;-77
2021/05/23 06:33:52;;;;;;;2.33;1.00;;;11.10;99.90;;;;;;4818425;28;20203;-79
2021/05/23 06:36:14;;;;;;;3.50;1.20;;;;;;;;;;4803298;28;20225;-80
2021/05/23 06:38:36;;;;;;;7.37;2.20;;;;;;;;;;4818976;28;20282;-82
2021/05/23 06:40:59;;;;;;;3.87;1.27;;;12.10;99.90;;;;;;4835895;28;20191;-81
2021/05/23 06:43:22;;;;;;;3.83;1.33;;;12.10;99.90;;;;;;4814575;28;20207;-86
2021/05/23 06:45:44;;;;;;;5.13;1.57;;;;;;;;;;4806674;28;20187;-79
2021/05/23 06:48:06;;;;;;;4.73;1.30;;;12.50;99.90;;;;;;4835177;28;20190;-80
2021/05/23 06:50:29;;;;;;;3.77;1.30;;;;;;;;;;4819040;28;20242;-82
2021/05/23 06:52:51;;;;;;;4.33;1.30;;;;;;;;;;4835746;28;20935;-84
2021/05/23 06:55:13;;;;;;;11.10;2.90;;;12.70;63.60;;;;;;4836167;28;20229;-81
2021/05/23 06:57:36;;;;;;;8.30;2.10;;;;;;;;;;4818907;28;20665;-80
2021/05/23 07:00:03;;;;;;;3.77;1.20;;;12.50;1.00;;;;;;4802115;28;20581;-79
2021/05/23 07:02:26;;;;;;;7.30;2.00;;;;;;;;;;4802756;28;20247;-81
2021/05/23 07:05:04;;;;;;;5.17;1.53;;;13.00;99.90;;;;;;4834473;28;20257;-81
2021/05/23 07:07:33;;;;;;;2.73;0.97;;;;;;;;;;4837004;28;20183;-83
2021/05/23 07:10:12;;;;;;;3.73;1.07;;;13.30;29.60;;;;;;4818508;28;20199;-82
2021/05/23 07:12:47;;;;;;;6.97;1.73;;;13.60;53.60;;;;;;4834866;28;20238;-83
2021/05/23 07:15:13;;;;;;;12.47;2.87;;;13.80;1.00;;;;;;4803635;28;20196;-80
2021/05/23 07:17:45;;;;;;;12.03;2.57;;;14.10;45.40;;;;;;4802983;28;20195;-83
2021/05/23 07:20:16;;;;;;;4.60;1.07;;;14.00;1.00;;;;;;4819354;28;20190;-81
2021/05/23 07:22:38;;;;;;;6.83;1.57;;;;;;;;;;4819142;28;20203;-79
2021/05/23 07:25:00;;;;;;;8.03;1.73;;;;;;;;;;4835855;28;20192;-80
2021/05/23 07:27:23;;;;;;;4.20;1.03;;;;;;;;;;4836169;28;20193;-87
2021/05/23 07:29:45;;;;;;;5.23;1.30;;;;;;;;;;4818030;28;20239;-82
2021/05/23 07:32:08;;;;;;;5.23;1.33;;;14.40;99.90;;;;;;4817758;28;20726;-81
2021/05/23 07:34:30;;;;;;;5.77;1.33;;;;;;;;;;4817024;28;20786;-81
2021/05/23 07:36:53;;;;;;;5.50;1.17;;;;;;;;;;4802414;28;20258;-79
2021/05/23 07:39:16;;;;;;;4.67;1.07;;;14.50;1.00;;;;;;4815836;28;20231;-80
2021/05/23 07:41:38;;;;;;;7.27;1.60;;;;;;;;;;4789816;28;20251;-78
2021/05/23 07:44:00;;;;;;;6.90;1.43;;;;;;;;;;4825952;28;20187;-80
2021/05/23 07:46:23;;;;;;;12.23;2.37;;;;;;;;;;4824348;28;20192;-79
2021/05/23 07:48:46;;;;;;;10.93;2.10;;;15.00;99.90;;;;;;4784342;28;21945;-80
2021/05/23 07:51:08;;;;;;;3.47;0.80;;;15.10;1.00;;;;;;4816904;28;20192;-79
2021/05/23 07:53:30;;;;;;;6.47;1.17;;;;;;;;;;4816053;28;20676;-80
2021/05/23 07:55:53;;;;;;;10.30;1.80;;;;;;;;;;4784353;28;20200;-77
2021/05/23 07:58:15;;;;;;;7.07;1.27;;;;;;;;;;4813521;28;20188;-80
2021/05/23 08:00:37;;;;;;;69.47;10.57;;;;;;;;;;4815062;28;20207;-87
2021/05/23 08:03:14;;;;;;;8.73;1.53;;;15.80;1.00;;;;;;4820891;28;20231;-90
2021/05/23 08:05:45;;;;;;;10.00;1.83;;;15.80;99.90;;;;;;4834527;28;20885;-85
2021/05/23 08:08:08;;;;;;;19.07;3.37;;;;;;;;;;4828987;28;20210;-77
2021/05/23 08:10:30;;;;;;;8.60;1.60;;;;;;;;;;4818964;28;20282;-79
2021/05/23 08:12:52;;;;;;;10.50;1.77;;;;;;;;;;4820087;28;20219;-80
2021/05/23 08:15:15;;;;;;;20.07;3.33;;;;;;;;;;4798806;28;20243;-78
2021/05/23 08:17:38;;;;;;;12.93;2.03;;;;;;;;;;4822441;28;20215;-80
2021/05/23 08:20:00;;;;;;;9.13;1.60;;;;;;;;;;4835419;28;20264;-84
2021/05/23 08:22:23;;;;;;;15.93;2.60;;;16.60;99.90;;;;;;4819409;28;20688;-88
2021/05/23 08:24:46;;;;;;;12.30;2.13;;;16.70;90.90;;;;;;4788703;28;20193;-82
2021/05/23 08:27:08;;;;;;;5.73;1.00;;;;;;;;;;4820085;28;20200;-81
2021/05/23 08:29:30;;;;;;;17.33;2.77;;;;;;;;;;4837137;28;20257;-83
2021/05/23 08:31:53;;;;;;;9.70;1.63;;;;;;;;;;4803654;28;20224;-81
2021/05/23 08:34:15;;;;;;;7.50;1.30;;;;;;;;;;4820644;28;20612;-83
2021/05/23 08:36:37;;;;;;;11.07;1.70;;;;;;;;;;4820112;28;20233;-84
2021/05/23 08:39:00;;;;;;;9.43;1.47;;;17.30;1.00;;;;;;4838929;28;20207;-78
2021/05/23 08:41:23;;;;;;;11.77;1.70;;;;;;;;;;4810766;28;20598;-79
2021/05/23 08:43:46;;;;;;;14.63;2.07;;;17.60;1.00;;;;;;4838415;28;20188;-81
2021/05/23 08:46:09;;;;;;;9.70;1.50;;;;;;;;;;4801116;28;20223;-91
2021/05/23 08:48:31;;;;;;;8.80;1.33;;;17.90;1.00;;;;;;4802435;28;20690;-82
2021/05/23 08:50:54;;;;;;;12.43;1.97;;;;;;;;;;4813377;28;20215;-81
2021/05/23 08:53:17;;;;;;;3.40;0.57;;;;;;;;;;4819577;28;20236;-80
2021/05/23 08:55:44;;;;;;;22.27;3.13;;;18.10;1.00;;;;;;4819716;28;20204;-80
2021/05/23 08:58:43;;;;;;;11.63;1.73;;;18.10;1.00;;;;;;4829490;28;20196;-91
2021/05/23 09:01:24;;;;;;;13.00;1.97;;;18.10;1.00;;;;;;4813020;28;20199;-83
2021/05/23 09:03:56;;;;;;;16.50;2.33;;;18.30;1.00;;;;;;4818756;28;20296;-84
2021/05/23 09:06:26;;;;;;;10.63;1.60;;;18.60;1.00;;;;;;4813709;28;20828;-84
2021/05/23 09:09:23;;;;;;;16.53;2.27;;;18.90;1.00;;;;;;4814997;28;20293;-85
2021/05/23 09:11:54;;;;;;;23.27;3.03;;;19.40;1.00;;;;;;4818149;28;20227;-94
2021/05/23 09:14:30;;;;;;;15.30;2.07;;;20.00;1.00;;;;;;4804514;28;20202;-92
2021/05/23 09:16:52;;;;;;;17.57;2.37;;;;;;;;;;4803037;28;20561;-85
2021/05/23 09:19:16;;;;;;;9.97;1.40;;;;;;;;;;4787648;28;20199;-77
2021/05/23 09:21:38;;;;;;;15.57;2.27;;;20.20;1.00;;;;;;4797452;28;20720;-89
2021/05/23 09:24:03;;;;;;;18.37;2.60;;;19.90;1.00;;;;;;4768818;28;20198;-92
2021/05/23 09:26:27;;;;;;;10.00;1.50;;;19.60;1.00;;;;;;4795951;28;20589;-91
2021/05/23 09:28:54;;;;;;;19.17;2.67;;;19.50;1.00;;;;;;4804887;28;20205;-91
2021/05/23 09:31:21;;;;;;;8.73;1.40;;;19.30;1.00;;;;;;4805123;28;20203;-91
2021/05/23 09:33:48;;;;;;;14.83;2.13;;;19.40;1.00;;;;;;4802054;28;21015;-89
2021/05/23 09:36:10;;;;;;;7.07;1.13;;;;;;;;;;4784237;28;20271;-87
2021/05/23 09:38:33;;;;;;;11.80;1.77;;;;;;;;;;4818863;28;20227;-84
2021/05/23 09:40:55;;;;;;;7.80;1.30;;;;;;;;;;4812038;28;20210;-91
2021/05/23 09:43:19;;;;;;;8.50;1.37;;;20.20;1.00;;;;;;4820331;28;20262;-85
2021/05/23 09:45:45;;;;;;;21.50;3.23;;;20.30;1.00;;;;;;4818063;28;20290;-84
2021/05/23 09:48:15;;;;;;;8.57;1.40;;;20.20;1.00;;;;;;4838117;28;20187;-87
2021/05/23 09:50:40;;;;;;;15.07;2.17;;;20.00;1.00;;;;;;4827086;28;20233;-82
2021/05/23 09:53:02;;;;;;;10.60;1.70;;;;;;;;;;4817881;28;20232;-79
2021/05/23 09:55:25;;;;;;;10.33;1.57;;;;;;;;;;4784087;28;20202;-82
2021/05/23 09:57:49;;;;;;;17.37;2.57;;;;;;;;;;4801093;28;20218;-81
2021/05/23 10:00:13;;;;;;;9.37;1.43;;;19.50;99.90;;;;;;4819022;28;20241;-83
2021/05/23 10:02:51;;;;;;;7.53;1.17;;;19.00;1.00;;;;;;4816266;28;20313;-82
2021/05/23 10:05:14;;;;;;;33.53;4.97;;;18.90;1.00;;;;;;4834278;28;20237;-84
2021/05/23 10:07:36;;;;;;;16.37;2.50;;;;;;;;;;4801827;28;20207;-83
2021/05/23 10:09:58;;;;;;;11.30;1.70;;;;;;;;;;4801925;28;20203;-90
2021/05/23 10:12:21;;;;;;;10.30;1.63;;;;;;;;;;4801358;28;20612;-80
2021/05/23 10:14:43;;;;;;;24.47;3.73;;;;;;;;;;4800809;28;20207;-81
2021/05/23 10:17:08;;;;;;;14.17;2.20;;;18.60;1.00;;;;;;4817118;28;20269;-81
2021/05/23 10:19:32;;;;;;;9.60;1.50;;;18.70;1.00;;;;;;4803467;28;20186;-80
2021/05/23 10:21:57;;;;;;;9.40;1.50;;;18.90;1.00;;;;;;4801687;28;20261;-85
2021/05/23 10:24:26;;;;;;;7.90;1.30;;;18.80;1.00;;;;;;4783693;28;20199;-82
2021/05/23 10:26:50;;;;;;;24.13;3.73;;;18.80;1.00;;;;;;4834247;28;20718;-80
2021/05/23 10:29:12;;;;;;;14.80;2.33;;;;;;;;;;4801567;28;20854;-84
2021/05/23 10:31:36;;;;;;;9.27;1.50;;;18.70;1.00;;;;;;4817185;28;20202;-81
2021/05/23 10:33:59;;;;;;;9.37;1.53;;;;;;;;;;4818562;28;20234;-84
2021/05/23 10:36:33;;;;;;;9.57;1.57;;;18.70;1.00;;;;;;4817984;28;20206;-86
2021/05/23 10:38:57;;;;;;;8.13;1.37;;;18.70;1.00;;;;;;4835908;28;20263;-85
2021/05/23 10:41:19;;;;;;;8.63;1.50;;;;;;;;;;4814182;28;20202;-79
2021/05/23 10:43:42;;;;;;;17.23;2.63;;;18.60;1.00;;;;;;4818116;28;20268;-83
2021/05/23 10:46:06;;;;;;;15.67;2.50;;;18.60;1.00;;;;;;4808264;28;20743;-82
2021/05/23 10:48:29;;;;;;;10.43;1.70;;;;;;;;;;4816984;28;20691;-82
2021/05/23 10:50:51;;;;;;;24.30;3.90;;;;;;;;;;4814843;28;20206;-76
2021/05/23 10:53:14;;;;;;;10.50;1.70;;;18.50;1.00;;;;;;4799366;28;20769;-78
2021/05/23 10:55:48;;;;;;;13.30;2.13;;;18.50;1.00;;;;;;4823853;28;20656;-80
2021/05/23 10:58:20;;;;;;;11.73;1.93;;;18.40;1.00;;;;;;4818365;28;20260;-79
2021/05/23 11:00:51;;;;;;;57.87;9.00;;;18.60;1.00;;;;;;4826480;28;20651;-82
2021/05/23 11:03:15;;;;;;;10.57;1.77;;;18.60;1.00;;;;;;4807409;28;20266;-81
2021/05/23 11:05:37;;;;;;;10.80;1.77;;;;;;;;;;4823911;28;20254;-80
2021/05/23 11:08:01;;;;;;;7.67;1.27;;;18.70;1.00;;;;;;4836402;28;20244;-80
2021/05/23 11:10:26;;;;;;;9.83;1.63;;;18.70;1.00;;;;;;4830803;28;20706;-85
2021/05/23 11:12:54;;;;;;;16.27;2.57;;;18.70;1.00;;;;;;4816342;28;20277;-86
2021/05/23 11:15:18;;;;;;;23.57;3.73;;;;;;;;;;4814537;28;20196;-78
2021/05/23 11:17:40;;;;;;;16.70;2.70;;;;;;;;;;4817771;28;20238;-78
2021/05/23 11:20:02;;;;;;;16.10;2.63;;;;;;;;;;4799392;28;20203;-77
2021/05/23 11:22:25;;;;;;;13.37;2.17;;;;;;;;;;4799143;28;20245;-79
2021/05/23 11:24:51;;;;;;;17.97;2.87;;;18.60;1.00;;;;;;4795054;28;20202;-83
2021/05/23 11:27:16;;;;;;;10.03;1.70;;;18.60;1.00;;;;;;4816205;28;20222;-81
2021/05/23 11:29:45;;;;;;;15.93;2.57;;;18.60;1.00;;;;;;4815531;28;20199;-81
2021/05/23 11:32:12;;;;;;;16.20;2.57;;;18.70;1.00;;;;;;4817658;28;20199;-79
2021/05/23 11:34:37;;;;;;;7.60;1.30;;;18.80;1.00;;;;;;4817905;28;20246;-78
2021/05/23 11:36:59;;;;;;;10.17;1.73;;;;;;;;;;4802403;28;20209;-82
2021/05/23 11:39:21;;;;;;;10.50;1.73;;;;;;;;;;4819512;28;20224;-78
2021/05/23 11:41:45;;;;;;;18.13;2.93;;;18.80;99.90;;;;;;4820262;28;20208;-81
2021/05/23 11:44:10;;;;;;;14.70;2.40;;;18.60;99.90;;;;;;4821974;28;20195;-86
2021/05/23 11:46:33;;;;;;;9.20;1.53;;;;;;;;;;4807130;28;20200;-81
2021/05/23 11:48:56;;;;;;;11.33;1.90;;;18.40;1.00;;;;;;4821586;28;20187;-81
2021/05/23 11:51:24;;;;;;;8.37;1.43;;;17.70;1.00;;;;;;4821181;28;20218;-80
2021/05/23 11:53:48;;;;;;;16.33;2.67;;;18.20;99.90;;;;;;4821950;28;20226;-77
2021/05/23 11:56:15;;;;;;;10.67;1.77;;;18.10;99.90;;;;;;4820009;28;20195;-80
2021/05/23 11:58:37;;;;;;;5.80;1.13;;;;;;;;;;4819771;28;20652;-79
2021/05/23 12:01:20;;;;;;;9.50;1.60;;;18.00;99.90;;;;;;4809271;28;20199;-78
2021/05/23 12:03:43;;;;;;;13.67;2.23;;;;;;;;;;4801439;28;20278;-86
2021/05/23 12:06:05;;;;;;;27.03;4.47;;;;;;;;;;4831985;28;20202;-79
2021/05/23 12:08:27;;;;;;;6.13;1.13;;;;;;;;;;4838466;28;20222;-84
2021/05/23 12:11:00;;;;;;;11.97;2.13;;;18.20;1.00;;;;;;4832541;28;20301;-78
2021/05/23 12:13:23;;;;;;;13.93;2.33;;;;;;;;;;4822582;28;20284;-79
2021/05/23 12:15:57;;;;;;;15.37;2.57;;;17.10;99.90;;;;;;4811747;28;20184;-82
2021/05/23 12:18:19;;;;;;;8.40;1.47;;;16.90;99.90;;;;;;4816151;28;20231;-77
2021/05/23 12:20:47;;;;;;;12.37;2.13;;;16.80;99.90;;;;;;4814778;28;20238;-83
2021/05/23 12:23:10;;;;;;;9.90;1.77;;;;;;;;;;4823410;28;20187;-83
2021/05/23 12:25:35;;;;;;;9.03;1.63;;;16.60;99.90;;;;;;4788919;28;20611;-81
2021/05/23 12:27:58;;;;;;;16.93;3.00;;;;;;;;;;4798877;28;20223;-78
2021/05/23 12:30:22;;;;;;;10.23;1.80;;;16.80;99.90;;;;;;4818750;28;20195;-81
2021/05/23 12:32:51;;;;;;;14.63;2.47;;;16.60;99.90;;;;;;4830052;28;20688;-88
2021/05/23 12:35:17;;;;;;;19.27;3.37;;;16.60;99.90;;;;;;4810913;28;20196;-81
2021/05/23 12:37:41;;;;;;;7.70;1.43;;;16.50;99.90;;;;;;4820756;28;20747;-86
2021/05/23 12:40:14;;;;;;;7.73;1.50;;;16.50;99.90;;;;;;4820412;28;20244;-79
2021/05/23 12:42:36;;;;;;;3.73;0.80;;;;;;;;;;4814406;28;20258;-77
2021/05/23 12:45:06;;;;;;;10.23;1.83;;;16.30;99.90;;;;;;4808954;28;20207;-82
2021/05/23 12:47:48;;;;;;;6.83;1.27;;;15.90;99.90;;;;;;4817119;28;20261;-83
2021/05/23 12:50:11;;;;;;;11.10;1.97;;;15.50;1.00;;;;;;4825003;28;20688;-82
2021/05/23 12:52:34;;;;;;;11.17;2.00;;;16.10;1.00;;;;;;4829794;28;20596;-85
2021/05/23 12:54:57;;;;;;;13.10;2.33;;;;;;;;;;4799816;28;20371;-85
2021/05/23 12:57:20;;;;;;;4.10;0.90;;;;;;;;;;4816832;28;20193;-86
2021/05/23 12:59:43;;;;;;;25.70;4.17;;;15.90;1.00;;;;;;4836665;28;20191;-80
2021/05/23 13:02:07;;;;;;;8.83;1.60;;;15.70;1.00;;;;;;4799583;28;20238;-83
2021/05/23 13:04:30;;;;;;;7.77;1.47;;;;;;;;;;4795581;28;20200;-79
2021/05/23 13:06:55;;;;;;;18.10;3.30;;;15.50;1.00;;;;;;4833594;28;20194;-83
2021/05/23 13:09:19;;;;;;;5.60;1.10;;;15.40;1.00;;;;;;4780359;28;20568;-78
2021/05/23 13:11:49;;;;;;;13.97;2.57;;;15.30;1.00;;;;;;4807995;28;20633;-84